Terminal Aerodrome Forecast
Issued by NWS

Home | Current Version | Previous Version | Text Only | Print | Product List | Glossary On
Versions: 1 2 3 4 5 6 7 8 9 10 11 12
000
FTAK31 PANC 210539
TAFAVD
TAF
PAVD 210539Z 2106/2206 08005KT P6SM -SN SCT020 OVC045
      TEMPO 2106/2109 4SM -SN BR FEW003 BKN020 OVC045
     FM210900 VRB03KT 3SM -SN BR SCT010 OVC020
     FM211800 VRB04KT P6SM VCSH SCT020 OVC045
     FM220400 VRB04KT P6SM SCT050
      AMD LTD TO CLD VIS AND WIND=

USA.gov is the U.S. government's official web portal to all federal, state and local government web resources and services.